sensor_id;sensor_type;location;lat;lon;timestamp;pressure;altitude;pressure_sealevel;temperature;humidity
11621;BME280;5866;49.094;11.900;2023-04-19T00:02:20;96787.00;;;9.25;100.00
11621;BME280;5866;49.094;11.900;2023-04-19T00:04:50;96773.63;;;9.26;100.00
11621;BME280;5866;49.094;11.900;2023-04-19T00:07:19;96784.63;;;9.41;100.00
11621;BME280;5866;49.094;11.900;2023-04-19T00:09:46;96785.34;;;9.05;100.00
11621;BME280;5866;49.094;11.900;2023-04-19T00:12:13;96778.81;;;9.09;100.00
11621;BME280;5866;49.094;11.900;2023-04-19T00:14:41;96766.66;;;9.35;100.00
11621;BME280;5866;49.094;11.900;2023-04-19T00:17:09;96763.63;;;9.30;100.00
11621;BME280;5866;49.094;11.900;2023-04-19T00:19:37;96768.91;;;9.30;100.00
11621;BME280;5866;49.094;11.900;2023-04-19T00:22:06;96769.16;;;9.46;100.00
11621;BME280;5866;49.094;11.900;2023-04-19T00:24:34;96765.13;;;9.13;100.00
11621;BME280;5866;49.094;11.900;2023-04-19T00:27:01;96766.16;;;9.03;100.00
11621;BME280;5866;49.094;11.900;2023-04-19T00:29:29;96767.66;;;9.34;100.00
11621;BME280;5866;49.094;11.900;2023-04-19T00:31:57;96766.13;;;9.31;100.00
11621;BME280;5866;49.094;11.900;2023-04-19T00:34:24;96760.13;;;9.29;100.00
11621;BME280;5866;49.094;11.900;2023-04-19T00:36:52;96756.88;;;9.45;100.00
11621;BME280;5866;49.094;11.900;2023-04-19T00:39:20;96754.69;;;9.31;100.00
11621;BME280;5866;49.094;11.900;2023-04-19T00:41:48;96749.59;;;9.66;100.00
11621;BME280;5866;49.094;11.900;2023-04-19T00:44:15;96746.81;;;9.58;100.00
11621;BME280;5866;49.094;11.900;2023-04-19T00:46:43;96741.06;;;9.72;100.00
11621;BME280;5866;49.094;11.900;2023-04-19T00:49:11;96740.50;;;9.32;100.00
11621;BME280;5866;49.094;11.900;2023-04-19T00:51:39;96742.72;;;9.27;100.00
11621;BME280;5866;49.094;11.900;2023-04-19T00:54:07;96742.28;;;9.31;100.00
11621;BME280;5866;49.094;11.900;2023-04-19T00:56:36;96736.41;;;9.47;100.00
11621;BME280;5866;49.094;11.900;2023-04-19T00:59:04;96731.19;;;9.65;100.00
11621;BME280;5866;49.094;11.900;2023-04-19T01:01:32;96740.75;;;9.29;100.00
11621;BME280;5866;49.094;11.900;2023-04-19T01:04:00;96730.31;;;9.18;100.00
11621;BME280;5866;49.094;11.900;2023-04-19T01:06:29;96735.63;;;9.08;100.00
11621;BME280;5866;49.094;11.900;2023-04-19T01:08:57;96727.16;;;8.86;100.00
11621;BME280;5866;49.094;11.900;2023-04-19T01:11:24;96733.81;;;8.80;100.00
11621;BME280;5866;49.094;11.900;2023-04-19T01:13:54;96727.41;;;9.02;100.00
11621;BME280;5866;49.094;11.900;2023-04-19T01:16:22;96725.19;;;9.07;100.00
11621;BME280;5866;49.094;11.900;2023-04-19T01:18:49;96718.94;;;8.98;100.00
11621;BME280;5866;49.094;11.900;2023-04-19T01:21:17;96716.13;;;9.19;100.00
11621;BME280;5866;49.094;11.900;2023-04-19T01:23:46;96707.47;;;9.07;100.00
11621;BME280;5866;49.094;11.900;2023-04-19T01:26:13;96703.22;;;8.77;100.00
11621;BME280;5866;49.094;11.900;2023-04-19T01:28:41;96717.94;;;8.70;100.00
11621;BME280;5866;49.094;11.900;2023-04-19T01:31:08;96692.59;;;8.97;100.00
11621;BME280;5866;49.094;11.900;2023-04-19T01:33:36;96700.81;;;8.84;100.00
11621;BME280;5866;49.094;11.900;2023-04-19T01:36:04;96698.88;;;8.76;100.00
11621;BME280;5866;49.094;11.900;2023-04-19T01:38:32;96692.47;;;8.69;100.00
11621;BME280;5866;49.094;11.900;2023-04-19T01:41:01;96683.44;;;8.62;100.00
11621;BME280;5866;49.094;11.900;2023-04-19T01:43:29;96691.22;;;8.54;100.00
11621;BME280;5866;49.094;11.900;2023-04-19T01:45:56;96696.53;;;8.54;100.00
11621;BME280;5866;49.094;11.900;2023-04-19T01:48:24;96686.47;;;8.48;100.00
11621;BME280;5866;49.094;11.900;2023-04-19T01:50:52;96694.69;;;8.45;100.00
11621;BME280;5866;49.094;11.900;2023-04-19T01:53:19;96687.03;;;8.42;100.00
11621;BME280;5866;49.094;11.900;2023-04-19T01:55:47;96690.34;;;8.44;100.00
11621;BME280;5866;49.094;11.900;2023-04-19T01:58:15;96686.47;;;8.39;100.00
11621;BME280;5866;49.094;11.900;2023-04-19T02:00:43;96689.84;;;8.50;100.00
11621;BME280;5866;49.094;11.900;2023-04-19T02:03:11;96686.38;;;8.69;100.00
11621;BME280;5866;49.094;11.900;2023-04-19T02:05:39;96685.78;;;8.85;100.00
11621;BME280;5866;49.094;11.900;2023-04-19T02:08:07;96684.41;;;8.80;100.00
11621;BME280;5866;49.094;11.900;2023-04-19T02:10:34;96683.97;;;8.95;100.00
11621;BME280;5866;49.094;11.900;2023-04-19T02:13:02;96682.88;;;8.88;100.00
11621;BME280;5866;49.094;11.900;2023-04-19T02:15:31;96673.38;;;8.95;100.00
11621;BME280;5866;49.094;11.900;2023-04-19T02:17:58;96673.69;;;8.72;100.00
11621;BME280;5866;49.094;11.900;2023-04-19T02:20:26;96672.84;;;8.82;100.00
11621;BME280;5866;49.094;11.900;2023-04-19T02:22:54;96676.44;;;9.00;100.00
11621;BME280;5866;49.094;11.900;2023-04-19T02:25:21;96664.75;;;8.93;100.00
11621;BME280;5866;49.094;11.900;2023-04-19T02:27:49;96664.50;;;8.76;100.00
11621;BME280;5866;49.094;11.900;2023-04-19T02:30:17;96658.94;;;8.70;100.00
11621;BME280;5866;49.094;11.900;2023-04-19T02:32:47;96666.97;;;8.30;100.00
11621;BME280;5866;49.094;11.900;2023-04-19T02:35:15;96668.09;;;8.28;100.00
11621;BME280;5866;49.094;11.900;2023-04-19T02:37:43;96667.50;;;8.24;100.00
11621;BME280;5866;49.094;11.900;2023-04-19T02:40:10;96665.25;;;8.10;100.00
11621;BME280;5866;49.094;11.900;2023-04-19T02:42:38;96664.00;;;8.14;100.00
11621;BME280;5866;49.094;11.900;2023-04-19T02:45:07;96658.84;;;8.03;100.00
11621;BME280;5866;49.094;11.900;2023-04-19T02:47:35;96656.91;;;8.05;100.00
11621;BME280;5866;49.094;11.900;2023-04-19T02:50:05;96653.00;;;8.09;100.00
11621;BME280;5866;49.094;11.900;2023-04-19T02:52:32;96649.63;;;7.88;100.00
11621;BME280;5866;49.094;11.900;2023-04-19T02:55:00;96652.41;;;7.96;100.00
11621;BME280;5866;49.094;11.900;2023-04-19T02:57:27;96657.19;;;8.02;100.00
11621;BME280;5866;49.094;11.900;2023-04-19T02:59:55;96652.41;;;7.96;100.00
11621;BME280;5866;49.094;11.900;2023-04-19T03:02:23;96643.78;;;7.94;100.00
11621;BME280;5866;49.094;11.900;2023-04-19T03:04:50;96644.63;;;7.85;100.00
11621;BME280;5866;49.094;11.900;2023-04-19T03:07:19;96637.94;;;7.81;100.00
11621;BME280;5866;49.094;11.900;2023-04-19T03:09:47;96636.56;;;7.77;100.00
11621;BME280;5866;49.094;11.900;2023-04-19T03:12:14;96642.69;;;7.87;100.00
11621;BME280;5866;49.094;11.900;2023-04-19T03:14:42;96634.06;;;7.85;100.00
11621;BME280;5866;49.094;11.900;2023-04-19T03:17:09;96629.03;;;7.82;100.00
11621;BME280;5866;49.094;11.900;2023-04-19T03:19:37;96629.03;;;7.82;100.00
11621;BME280;5866;49.094;11.900;2023-04-19T03:22:05;96620.16;;;7.83;100.00
11621;BME280;5866;49.094;11.900;2023-04-19T03:24:34;96620.41;;;7.70;100.00
11621;BME280;5866;49.094;11.900;2023-04-19T03:27:03;96616.13;;;7.79;100.00
11621;BME280;5866;49.094;11.900;2023-04-19T03:29:31;96618.19;;;7.75;100.00
11621;BME280;5866;49.094;11.900;2023-04-19T03:31:58;96612.59;;;7.69;100.00
11621;BME280;5866;49.094;11.900;2023-04-19T03:34:26;96613.03;;;7.74;100.00
11621;BME280;5866;49.094;11.900;2023-04-19T03:36:53;96601.34;;;7.67;100.00
11621;BME280;5866;49.094;11.900;2023-04-19T03:39:21;96597.97;;;7.55;100.00
11621;BME280;5866;49.094;11.900;2023-04-19T03:41:49;96600.47;;;7.57;100.00
11621;BME280;5866;49.094;11.900;2023-04-19T03:44:17;96601.88;;;7.51;100.00
11621;BME280;5866;49.094;11.900;2023-04-19T03:46:44;96606.38;;;7.40;100.00
11621;BME280;5866;49.094;11.900;2023-04-19T03:49:14;96601.47;;;7.26;100.00
11621;BME280;5866;49.094;11.900;2023-04-19T03:51:41;96603.50;;;7.43;100.00
11621;BME280;5866;49.094;11.900;2023-04-19T03:54:09;96603.88;;;7.29;100.00
11621;BME280;5866;49.094;11.900;2023-04-19T03:56:36;96601.63;;;7.24;100.00
11621;BME280;5866;49.094;11.900;2023-04-19T03:59:05;96598.16;;;7.23;100.00
11621;BME280;5866;49.094;11.900;2023-04-19T04:01:32;96600.53;;;7.27;100.00
11621;BME280;5866;49.094;11.900;2023-04-19T04:04:00;96604.34;;;7.13;100.00
11621;BME280;5866;49.094;11.900;2023-04-19T04:06:30;96604.09;;;7.16;100.00
11621;BME280;5866;49.094;11.900;2023-04-19T04:08:57;96588.81;;;7.19;100.00
11621;BME280;5866;49.094;11.900;2023-04-19T04:11:25;96596.75;;;7.29;100.00
11621;BME280;5866;49.094;11.900;2023-04-19T04:13:54;96602.47;;;7.25;100.00
11621;BME280;5866;49.094;11.900;2023-04-19T04:16:23;96596.22;;;7.26;100.00
11621;BME280;5866;49.094;11.900;2023-04-19T04:18:50;96599.53;;;7.18;100.00
11621;BME280;5866;49.094;11.900;2023-04-19T04:21:18;96600.22;;;7.20;100.00
11621;BME280;5866;49.094;11.900;2023-04-19T04:23:46;96598.75;;;7.06;100.00
11621;BME280;5866;49.094;11.900;2023-04-19T04:26:15;96599.03;;;7.03;100.00
11621;BME280;5866;49.094;11.900;2023-04-19T04:28:42;96598.44;;;7.00;100.00
11621;BME280;5866;49.094;11.900;2023-04-19T04:31:10;96602.31;;;6.96;100.00
11621;BME280;5866;49.094;11.900;2023-04-19T04:33:39;96599.03;;;7.03;100.00
11621;BME280;5866;49.094;11.900;2023-04-19T04:36:08;96612.13;;;7.14;100.00
11621;BME280;5866;49.094;11.900;2023-04-19T04:38:37;96596.88;;;7.18;100.00
11621;BME280;5866;49.094;11.900;2023-04-19T04:41:04;96598.94;;;7.14;100.00
11621;BME280;5866;49.094;11.900;2023-04-19T04:43:32;96591.91;;;7.25;100.00
11621;BME280;5866;49.094;11.900;2023-04-19T04:46:00;96590.84;;;7.37;100.00
11621;BME280;5866;49.094;11.900;2023-04-19T04:48:27;96596.28;;;7.14;100.00
11621;BME280;5866;49.094;11.900;2023-04-19T04:50:57;96590.75;;;7.17;100.00
11621;BME280;5866;49.094;11.900;2023-04-19T04:53:25;96598.69;;;7.17;100.00
11621;BME280;5866;49.094;11.900;2023-04-19T04:55:53;96586.25;;;7.39;100.00
11621;BME280;5866;49.094;11.900;2023-04-19T04:58:20;96585.47;;;7.48;100.00
11621;BME280;5866;49.094;11.900;2023-04-19T05:00:48;96591.47;;;7.69;100.00
11621;BME280;5866;49.094;11.900;2023-04-19T05:03:15;96580.59;;;7.53;100.00
11621;BME280;5866;49.094;11.900;2023-04-19T05:05:43;96586.47;;;7.66;100.00
11621;BME280;5866;49.094;11.900;2023-04-19T05:08:12;96586.53;;;7.85;100.00
11621;BME280;5866;49.094;11.900;2023-04-19T05:10:39;96581.50;;;7.72;100.00
11621;BME280;5866;49.094;11.900;2023-04-19T05:13:07;96584.25;;;7.61;100.00
11621;BME280;5866;49.094;11.900;2023-04-19T05:15:34;96579.31;;;7.87;100.00
11621;BME280;5866;49.094;11.900;2023-04-19T05:18:02;96591.22;;;7.72;100.00
11621;BME280;5866;49.094;11.900;2023-04-19T05:20:30;96593.75;;;7.92;100.00
11621;BME280;5866;49.094;11.900;2023-04-19T05:22:59;96593.06;;;7.81;100.00
11621;BME280;5866;49.094;11.900;2023-04-19T05:25:30;96590.19;;;8.13;100.00
11621;BME280;5866;49.094;11.900;2023-04-19T05:27:57;96591.25;;;8.00;100.00
11621;BME280;5866;49.094;11.900;2023-04-19T05:30:25;96583.22;;;8.02;100.00
11621;BME280;5866;49.094;11.900;2023-04-19T05:32:52;96588.22;;;7.95;100.00
11621;BME280;5866;49.094;11.900;2023-04-19T05:35:20;96578.47;;;8.15;100.00
11621;BME280;5866;49.094;11.900;2023-04-19T05:37:47;96580.03;;;8.08;100.00
11621;BME280;5866;49.094;11.900;2023-04-19T05:40:15;96577.28;;;8.29;100.00
11621;BME280;5866;49.094;11.900;2023-04-19T05:42:44;96576.28;;;8.30;100.00
11621;BME280;5866;49.094;11.900;2023-04-19T05:45:11;96564.34;;;8.35;100.00
11621;BME280;5866;49.094;11.900;2023-04-19T05:47:40;96561.25;;;8.21;100.00
11621;BME280;5866;49.094;11.900;2023-04-19T05:50:09;96564.19;;;8.37;100.00
11621;BME280;5866;49.094;11.900;2023-04-19T05:52:36;96563.66;;;8.33;100.00
11621;BME280;5866;49.094;11.900;2023-04-19T05:55:04;96553.78;;;8.35;100.00
11621;BME280;5866;49.094;11.900;2023-04-19T05:57:32;96551.94;;;8.45;100.00
11621;BME280;5866;49.094;11.900;2023-04-19T06:00:00;96545.41;;;8.40;100.00
11621;BME280;5866;49.094;11.900;2023-04-19T06:02:28;96556.78;;;8.59;100.00
11621;BME280;5866;49.094;11.900;2023-04-19T06:04:56;96550.94;;;8.56;100.00
11621;BME280;5866;49.094;11.900;2023-04-19T06:07:30;96554.00;;;8.70;100.00
11621;BME280;5866;49.094;11.900;2023-04-19T06:10:06;96551.72;;;8.75;100.00
11621;BME280;5866;49.094;11.900;2023-04-19T06:12:33;96547.53;;;8.82;100.00
11621;BME280;5866;49.094;11.900;2023-04-19T06:15:03;96553.00;;;8.71;100.00
11621;BME280;5866;49.094;11.900;2023-04-19T06:17:31;96551.16;;;8.91;100.00
11621;BME280;5866;49.094;11.900;2023-04-19T06:19:58;96550.06;;;8.74;100.00
11621;BME280;5866;49.094;11.900;2023-04-19T06:22:26;96548.69;;;8.61;100.00
11621;BME280;5866;49.094;11.900;2023-04-19T06:24:53;96548.72;;;8.51;100.00
11621;BME280;5866;49.094;11.900;2023-04-19T06:27:21;96548.97;;;8.67;100.00
11621;BME280;5866;49.094;11.900;2023-04-19T06:29:48;96546.50;;;8.56;100.00
11621;BME280;5866;49.094;11.900;2023-04-19T06:32:18;96548.44;;;8.64;100.00
11621;BME280;5866;49.094;11.900;2023-04-19T06:34:45;96546.16;;;8.78;100.00
11621;BME280;5866;49.094;11.900;2023-04-19T06:37:13;96543.97;;;8.64;100.00
11621;BME280;5866;49.094;11.900;2023-04-19T06:39:40;96545.38;;;8.68;100.00
11621;BME280;5866;49.094;11.900;2023-04-19T06:42:08;96540.22;;;8.67;100.00
11621;BME280;5866;49.094;11.900;2023-04-19T06:44:35;96543.69;;;8.67;100.00
11621;BME280;5866;49.094;11.900;2023-04-19T06:47:03;96545.66;;;8.56;100.00
11621;BME280;5866;49.094;11.900;2023-04-19T06:49:32;96547.09;;;8.50;100.00
11621;BME280;5866;49.094;11.900;2023-04-19T06:52:00;96549.88;;;8.39;100.00
11621;BME280;5866;49.094;11.900;2023-04-19T06:54:27;96538.66;;;8.84;100.00
11621;BME280;5866;49.094;11.900;2023-04-19T06:56:55;96541.34;;;8.64;100.00
11621;BME280;5866;49.094;11.900;2023-04-19T06:59:22;96541.16;;;8.75;100.00
11621;BME280;5866;49.094;11.900;2023-04-19T07:01:53;96548.66;;;8.80;100.00
11621;BME280;5866;49.094;11.900;2023-04-19T07:04:22;96533.84;;;9.06;100.00
11621;BME280;5866;49.094;11.900;2023-04-19T07:06:51;96526.97;;;9.13;100.00
11621;BME280;5866;49.094;11.900;2023-04-19T07:09:18;96531.91;;;8.99;100.00
11621;BME280;5866;49.094;11.900;2023-04-19T07:11:46;96529.06;;;9.10;100.00
11621;BME280;5866;49.094;11.900;2023-04-19T07:14:13;96527.88;;;8.95;100.00
11621;BME280;5866;49.094;11.900;2023-04-19T07:16:42;96530.25;;;8.98;100.00
11621;BME280;5866;49.094;11.900;2023-04-19T07:19:09;96536.44;;;8.79;100.00
11621;BME280;5866;49.094;11.900;2023-04-19T07:21:37;96535.63;;;8.59;100.00
11621;BME280;5866;49.094;11.900;2023-04-19T07:24:06;96525.34;;;8.47;100.00
11621;BME280;5866;49.094;11.900;2023-04-19T07:26:34;96533.72;;;8.42;100.00
11621;BME280;5866;49.094;11.900;2023-04-19T07:29:01;96540.44;;;8.27;100.00
11621;BME280;5866;49.094;11.900;2023-04-19T07:31:29;96530.94;;;8.25;100.00
11621;BME280;5866;49.094;11.900;2023-04-19T07:33:57;96540.66;;;8.24;100.00
11621;BME280;5866;49.094;11.900;2023-04-19T07:36:25;96537.22;;;8.33;100.00
11621;BME280;5866;49.094;11.900;2023-04-19T07:38:53;96535.09;;;8.46;100.00
11621;BME280;5866;49.094;11.900;2023-04-19T07:41:21;96538.44;;;8.48;100.00
11621;BME280;5866;49.094;11.900;2023-04-19T07:43:49;96530.38;;;8.40;100.00
11621;BME280;5866;49.094;11.900;2023-04-19T07:46:16;96532.19;;;8.49;100.00
11621;BME280;5866;49.094;11.900;2023-04-19T07:48:44;96526.78;;;8.41;100.00
11621;BME280;5866;49.094;11.900;2023-04-19T07:51:13;96521.22;;;8.35;100.00
11621;BME280;5866;49.094;11.900;2023-04-19T07:53:42;96530.66;;;8.37;100.00
11621;BME280;5866;49.094;11.900;2023-04-19T07:56:10;96522.75;;;8.28;100.00
11621;BME280;5866;49.094;11.900;2023-04-19T07:58:39;96532.88;;;8.32;100.00
11621;BME280;5866;49.094;11.900;2023-04-19T08:01:09;96528.16;;;8.45;100.00
11621;BME280;5866;49.094;11.900;2023-04-19T08:03:36;96522.41;;;8.59;100.00
11621;BME280;5866;49.094;11.900;2023-04-19T08:06:05;96523.56;;;8.47;100.00
11621;BME280;5866;49.094;11.900;2023-04-19T08:08:33;96523.94;;;8.62;100.00
11621;BME280;5866;49.094;11.900;2023-04-19T08:11:01;96516.75;;;8.35;100.00
11621;BME280;5866;49.094;11.900;2023-04-19T08:13:29;96518.16;;;8.39;100.00
11621;BME280;5866;49.094;11.900;2023-04-19T08:15:58;96515.34;;;8.50;100.00
11621;BME280;5866;49.094;11.900;2023-04-19T08:18:29;96517.28;;;8.48;100.00
11621;BME280;5866;49.094;11.900;2023-04-19T08:20:57;96507.81;;;8.65;100.00
11621;BME280;5866;49.094;11.900;2023-04-19T08:23:24;96522.25;;;8.70;100.00
11621;BME280;5866;49.094;11.900;2023-04-19T08:26:06;96514.22;;;8.62;100.00
11621;BME280;5866;49.094;11.900;2023-04-19T08:28:34;96508.91;;;8.62;100.00
11621;BME280;5866;49.094;11.900;2023-04-19T08:31:05;96506.66;;;8.77;100.00
11621;BME280;5866;49.094;11.900;2023-04-19T08:33:33;96506.09;;;8.73;100.00
11621;BME280;5866;49.094;11.900;2023-04-19T08:36:01;96505.63;;;8.88;100.00
11621;BME280;5866;49.094;11.900;2023-04-19T08:38:28;96507.75;;;8.74;100.00
11621;BME280;5866;49.094;11.900;2023-04-19T08:40:56;96503.00;;;8.88;100.00
11621;BME280;5866;49.094;11.900;2023-04-19T08:43:24;96500.03;;;8.91;100.00
11621;BME280;5866;49.094;11.900;2023-04-19T08:45:54;96497.38;;;9.00;100.00
11621;BME280;5866;49.094;11.900;2023-04-19T08:48:25;96495.00;;;9.34;100.00
11621;BME280;5866;49.094;11.900;2023-04-19T08:50:55;96501.16;;;9.25;100.00
11621;BME280;5866;49.094;11.900;2023-04-19T08:53:32;96501.41;;;9.31;100.00
11621;BME280;5866;49.094;11.900;2023-04-19T08:56:00;96493.41;;;9.14;100.00
11621;BME280;5866;49.094;11.900;2023-04-19T08:58:31;96492.59;;;8.76;100.00
11621;BME280;5866;49.094;11.900;2023-04-19T09:01:03;96499.41;;;8.69;100.00
11621;BME280;5866;49.094;11.900;2023-04-19T09:03:32;96487.13;;;8.88;100.00
11621;BME280;5866;49.094;11.900;2023-04-19T09:06:16;96490.63;;;9.15;100.00
11621;BME280;5866;49.094;11.900;2023-04-19T09:08:44;96484.28;;;8.99;100.00
11621;BME280;5866;49.094;11.900;2023-04-19T09:11:12;96486.22;;;9.06;100.00
11621;BME280;5866;49.094;11.900;2023-04-19T09:13:39;96489.38;;;9.37;100.00
11621;BME280;5866;49.094;11.900;2023-04-19T09:16:22;96472.81;;;9.08;100.00
11621;BME280;5866;49.094;11.900;2023-04-19T09:18:56;96480.84;;;9.16;100.00
11621;BME280;5866;49.094;11.900;2023-04-19T09:21:45;96471.50;;;8.94;100.00
11621;BME280;5866;49.094;11.900;2023-04-19T09:24:12;96478.41;;;9.05;100.00
11621;BME280;5866;49.094;11.900;2023-04-19T09:26:52;96478.94;;;9.08;100.00
11621;BME280;5866;49.094;11.900;2023-04-19T09:29:20;96475.31;;;9.09;100.00
11621;BME280;5866;49.094;11.900;2023-04-19T09:31:55;96472.59;;;8.64;100.00
11621;BME280;5866;49.094;11.900;2023-04-19T09:34:24;96470.81;;;8.55;100.00
11621;BME280;5866;49.094;11.900;2023-04-19T09:36:54;96476.63;;;8.68;100.00
11621;BME280;5866;49.094;11.900;2023-04-19T09:39:37;96477.13;;;8.82;100.00
11621;BME280;5866;49.094;11.900;2023-04-19T09:42:04;96479.38;;;8.76;100.00
11621;BME280;5866;49.094;11.900;2023-04-19T09:44:32;96474.53;;;8.62;100.00
11621;BME280;5866;49.094;11.900;2023-04-19T09:47:21;96482.53;;;8.05;100.00
11621;BME280;5866;49.094;11.900;2023-04-19T09:50:05;96480.75;;;7.86;100.00
11621;BME280;5866;49.094;11.900;2023-04-19T09:52:47;96484.78;;;7.81;100.00
11621;BME280;5866;49.094;11.900;2023-04-19T09:55:15;96484.47;;;7.55;100.00
11621;BME280;5866;49.094;11.900;2023-04-19T09:57:53;96492.28;;;7.66;100.00
11621;BME280;5866;49.094;11.900;2023-04-19T10:00:21;96488.69;;;7.77;100.00
11621;BME280;5866;49.094;11.900;2023-04-19T10:02:51;96505.44;;;7.57;100.00
11621;BME280;5866;49.094;11.900;2023-04-19T10:05:25;96494.16;;;7.36;100.00
11621;BME280;5866;49.094;11.900;2023-04-19T10:07:53;96492.75;;;7.32;100.00
11621;BME280;5866;49.094;11.900;2023-04-19T10:10:26;96496.66;;;7.28;100.00
11621;BME280;5866;49.094;11.900;2023-04-19T10:13:10;96493.06;;;7.29;100.00
11621;BME280;5866;49.094;11.900;2023-04-19T10:15:47;96497.19;;;7.21;100.00
11621;BME280;5866;49.094;11.900;2023-04-19T10:18:21;96493.31;;;7.26;100.00
11621;BME280;5866;49.094;11.900;2023-04-19T10:20:53;96493.91;;;7.48;100.00
11621;BME280;5866;49.094;11.900;2023-04-19T10:23:23;96496.44;;;7.59;100.00
11621;BME280;5866;49.094;11.900;2023-04-19T10:25:55;96483.66;;;7.55;100.00
11621;BME280;5866;49.094;11.900;2023-04-19T10:28:23;96481.41;;;7.41;100.00
11621;BME280;5866;49.094;11.900;2023-04-19T10:30:52;96467.88;;;7.05;100.00
11621;BME280;5866;49.094;11.900;2023-04-19T10:33:24;96485.97;;;6.89;100.00
11621;BME280;5866;49.094;11.900;2023-04-19T10:35:56;96489.06;;;7.04;100.00
11621;BME280;5866;49.094;11.900;2023-04-19T10:38:38;96483.06;;;6.83;100.00
11621;BME280;5866;49.094;11.900;2023-04-19T10:41:06;96480.16;;;6.95;100.00
11621;BME280;5866;49.094;11.900;2023-04-19T10:43:45;96491.06;;;7.21;100.00
11621;BME280;5866;49.094;11.900;2023-04-19T10:46:14;96478.28;;;7.16;100.00
11621;BME280;5866;49.094;11.900;2023-04-19T10:48:50;96478.78;;;7.50;100.00
11621;BME280;5866;49.094;11.900;2023-04-19T10:51:25;96473.34;;;7.33;100.00
11621;BME280;5866;49.094;11.900;2023-04-19T10:53:58;96466.63;;;7.09;100.00
11621;BME280;5866;49.094;11.900;2023-04-19T10:56:57;96449.72;;;7.21;100.00
11621;BME280;5866;49.094;11.900;2023-04-19T10:59:27;96453.75;;;7.26;100.00
11621;BME280;5866;49.094;11.900;2023-04-19T11:01:56;96447.69;;;7.54;100.00
11621;BME280;5866;49.094;11.900;2023-04-19T11:07:40;96431.50;;;8.14;100.00
11621;BME280;5866;49.094;11.900;2023-04-19T11:10:08;96412.22;;;8.04;100.00
11621;BME280;5866;49.094;11.900;2023-04-19T11:12:41;96416.03;;;8.19;100.00
11621;BME280;5866;49.094;11.900;2023-04-19T11:15:09;96409.03;;;8.56;100.00
11621;BME280;5866;49.094;11.900;2023-04-19T11:17:37;96400.28;;;8.83;100.00
11621;BME280;5866;49.094;11.900;2023-04-19T11:20:06;96400.03;;;8.76;100.00
11621;BME280;5866;49.094;11.900;2023-04-19T11:22:36;96395.91;;;8.92;100.00
11621;BME280;5866;49.094;11.900;2023-04-19T11:25:07;96398.31;;;8.58;100.00
11621;BME280;5866;49.094;11.900;2023-04-19T11:27:35;96385.47;;;8.63;100.00
11621;BME280;5866;49.094;11.900;2023-04-19T11:30:04;96391.25;;;8.76;100.00
11621;BME280;5866;49.094;11.900;2023-04-19T11:32:33;96377.16;;;8.85;100.00
11621;BME280;5866;49.094;11.900;2023-04-19T11:35:05;96369.47;;;9.09;100.00
11621;BME280;5866;49.094;11.900;2023-04-19T11:37:34;96359.63;;;9.72;100.00
11621;BME280;5866;49.094;11.900;2023-04-19T11:40:02;96360.44;;;8.85;100.00
11621;BME280;5866;49.094;11.900;2023-04-19T11:42:33;96369.19;;;8.21;100.00
11621;BME280;5866;49.094;11.900;2023-04-19T11:45:01;96375.94;;;8.52;100.00
11621;BME280;5866;49.094;11.900;2023-04-19T11:47:29;96363.44;;;8.72;100.00
11621;BME280;5866;49.094;11.900;2023-04-19T11:50:29;96351.56;;;9.56;100.00
11621;BME280;5866;49.094;11.900;2023-04-19T11:52:57;96355.72;;;9.58;100.00
11621;BME280;5866;49.094;11.900;2023-04-19T11:55:24;96348.13;;;9.81;100.00
11621;BME280;5866;49.094;11.900;2023-04-19T11:57:53;96351.66;;;9.46;100.00
11621;BME280;5866;49.094;11.900;2023-04-19T12:00:26;96349.91;;;9.20;100.00
11621;BME280;5866;49.094;11.900;2023-04-19T12:02:54;96356.38;;;9.78;100.00
11621;BME280;5866;49.094;11.900;2023-04-19T12:05:22;96353.06;;;10.02;100.00
11621;BME280;5866;49.094;11.900;2023-04-19T12:08:00;96351.22;;;9.94;100.00
11621;BME280;5866;49.094;11.900;2023-04-19T12:10:29;96342.78;;;9.73;100.00
11621;BME280;5866;49.094;11.900;2023-04-19T12:12:58;96345.00;;;10.29;100.00
11621;BME280;5866;49.094;11.900;2023-04-19T12:15:40;96340.59;;;10.46;100.00
11621;BME280;5866;49.094;11.900;2023-04-19T12:18:08;96342.63;;;10.52;100.00
11621;BME280;5866;49.094;11.900;2023-04-19T12:20:38;96333.69;;;11.02;100.00
11621;BME280;5866;49.094;11.900;2023-04-19T12:23:09;96327.00;;;11.64;100.00
11621;BME280;5866;49.094;11.900;2023-04-19T12:25:39;96322.31;;;11.98;100.00
11621;BME280;5866;49.094;11.900;2023-04-19T12:28:08;96312.16;;;13.34;100.00
11621;BME280;5866;49.094;11.900;2023-04-19T12:30:35;96304.88;;;13.28;84.04
11621;BME280;5866;49.094;11.900;2023-04-19T12:33:03;96301.31;;;12.28;87.15
11621;BME280;5866;49.094;11.900;2023-04-19T12:35:31;96310.81;;;12.22;93.50
11621;BME280;5866;49.094;11.900;2023-04-19T12:37:59;96310.69;;;12.08;87.18
11621;BME280;5866;49.094;11.900;2023-04-19T12:40:26;96306.06;;;11.93;85.72
11621;BME280;5866;49.094;11.900;2023-04-19T12:42:54;96301.94;;;11.75;93.97
11621;BME280;5866;49.094;11.900;2023-04-19T12:45:23;96303.59;;;11.76;90.59
11621;BME280;5866;49.094;11.900;2023-04-19T12:47:50;96302.19;;;12.20;85.66
11621;BME280;5866;49.094;11.900;2023-04-19T12:50:18;96304.22;;;11.62;80.22
11621;BME280;5866;49.094;11.900;2023-04-19T12:52:45;96300.72;;;11.21;83.76
11621;BME280;5866;49.094;11.900;2023-04-19T12:55:13;96289.41;;;10.95;85.63
11621;BME280;5866;49.094;11.900;2023-04-19T12:57:41;96297.25;;;11.45;79.06
11621;BME280;5866;49.094;11.900;2023-04-19T13:00:09;96293.75;;;11.20;80.64
11621;BME280;5866;49.094;11.900;2023-04-19T13:02:39;96292.28;;;11.50;76.09
11621;BME280;5866;49.094;11.900;2023-04-19T13:05:07;96291.78;;;11.78;73.60
11621;BME280;5866;49.094;11.900;2023-04-19T13:07:34;96287.78;;;12.84;64.40
11621;BME280;5866;49.094;11.900;2023-04-19T13:10:02;96294.19;;;12.75;62.69
11621;BME280;5866;49.094;11.900;2023-04-19T13:12:30;96282.16;;;13.40;59.32
11621;BME280;5866;49.094;11.900;2023-04-19T13:14:57;96280.00;;;12.83;54.74